sensor_id;sensor_type;location;lat;lon;timestamp;P1;durP1;ratioP1;P2;durP2;ratioP2
70927;SDS011;58587;53.034;18.576;2022-07-06T08:05:25;3.30;;;1.15;;
70927;SDS011;58587;53.034;18.576;2022-07-06T08:07:51;1.13;;;0.95;;
70927;SDS011;58587;53.034;18.576;2022-07-06T08:10:17;4.20;;;1.13;;
70927;SDS011;58587;53.034;18.576;2022-07-06T08:12:42;3.33;;;1.30;;
70927;SDS011;58587;53.034;18.576;2022-07-06T08:15:08;1.97;;;1.07;;
70927;SDS011;58587;53.034;18.576;2022-07-06T08:17:33;2.38;;;1.17;;
70927;SDS011;58587;53.034;18.576;2022-07-06T08:19:59;1.57;;;1.10;;
70927;SDS011;58587;53.034;18.576;2022-07-06T08:22:25;2.63;;;0.93;;
70927;SDS011;58587;53.034;18.576;2022-07-06T08:24:52;6.43;;;1.35;;
70927;SDS011;58587;53.034;18.576;2022-07-06T08:27:17;2.67;;;1.13;;
70927;SDS011;58587;53.034;18.576;2022-07-06T08:29:43;4.55;;;1.50;;
70927;SDS011;58587;53.034;18.576;2022-07-06T08:32:08;4.00;;;1.20;;
70927;SDS011;58587;53.034;18.576;2022-07-06T08:34:34;5.83;;;1.53;;
70927;SDS011;58587;53.034;18.576;2022-07-06T08:36:59;2.00;;;0.97;;
70927;SDS011;58587;53.034;18.576;2022-07-06T08:39:25;2.50;;;1.50;;
70927;SDS011;58587;53.034;18.576;2022-07-06T08:41:50;2.83;;;1.23;;
70927;SDS011;58587;53.034;18.576;2022-07-06T08:44:16;3.27;;;1.00;;
70927;SDS011;58587;53.034;18.576;2022-07-06T08:46:43;2.40;;;0.65;;
70927;SDS011;58587;53.034;18.576;2022-07-06T08:49:13;1.70;;;0.85;;
70927;SDS011;58587;53.034;18.576;2022-07-06T08:51:41;1.52;;;0.90;;
70927;SDS011;58587;53.034;18.576;2022-07-06T08:54:07;3.73;;;1.03;;
70927;SDS011;58587;53.034;18.576;2022-07-06T08:56:33;2.95;;;0.65;;
70927;SDS011;58587;53.034;18.576;2022-07-06T08:58:58;2.55;;;1.27;;
70927;SDS011;58587;53.034;18.576;2022-07-06T09:01:24;1.13;;;0.60;;
70927;SDS011;58587;53.034;18.576;2022-07-06T09:03:50;2.95;;;0.60;;
70927;SDS011;58587;53.034;18.576;2022-07-06T09:06:26;1.65;;;0.60;;
70927;SDS011;58587;53.034;18.576;2022-07-06T09:08:55;1.98;;;0.80;;
70927;SDS011;58587;53.034;18.576;2022-07-06T09:11:22;4.35;;;0.90;;
70927;SDS011;58587;53.034;18.576;2022-07-06T09:13:48;3.10;;;0.70;;
70927;SDS011;58587;53.034;18.576;2022-07-06T09:16:16;0.98;;;0.45;;
70927;SDS011;58587;53.034;18.576;2022-07-06T09:18:45;2.85;;;0.70;;
70927;SDS011;58587;53.034;18.576;2022-07-06T09:21:11;3.95;;;0.65;;
70927;SDS011;58587;53.034;18.576;2022-07-06T09:23:47;2.83;;;0.60;;
70927;SDS011;58587;53.034;18.576;2022-07-06T09:26:19;3.40;;;0.50;;
70927;SDS011;58587;53.034;18.576;2022-07-06T09:28:45;1.23;;;0.50;;
70927;SDS011;58587;53.034;18.576;2022-07-06T09:31:10;2.75;;;0.80;;
70927;SDS011;58587;53.034;18.576;2022-07-06T09:33:37;2.95;;;0.70;;
70927;SDS011;58587;53.034;18.576;2022-07-06T09:36:03;1.03;;;0.70;;
70927;SDS011;58587;53.034;18.576;2022-07-06T09:38:30;1.40;;;0.70;;
70927;SDS011;58587;53.034;18.576;2022-07-06T09:40:56;1.10;;;0.57;;
70927;SDS011;58587;53.034;18.576;2022-07-06T09:43:22;1.70;;;0.90;;
70927;SDS011;58587;53.034;18.576;2022-07-06T09:45:51;2.38;;;1.10;;
70927;SDS011;58587;53.034;18.576;2022-07-06T09:48:22;2.83;;;0.77;;
70927;SDS011;58587;53.034;18.576;2022-07-06T09:53:34;4.75;;;0.90;;
70927;SDS011;58587;53.034;18.576;2022-07-06T09:56:00;3.30;;;0.80;;
70927;SDS011;58587;53.034;18.576;2022-07-06T09:58:27;1.08;;;0.60;;
70927;SDS011;58587;53.034;18.576;2022-07-06T10:00:52;2.17;;;0.70;;
70927;SDS011;58587;53.034;18.576;2022-07-06T10:03:18;3.42;;;0.65;;
70927;SDS011;58587;53.034;18.576;2022-07-06T10:05:45;1.43;;;0.90;;
70927;SDS011;58587;53.034;18.576;2022-07-06T10:08:12;2.80;;;0.98;;
70927;SDS011;58587;53.034;18.576;2022-07-06T10:10:40;2.17;;;0.77;;
70927;SDS011;58587;53.034;18.576;2022-07-06T10:13:06;1.20;;;0.82;;
70927;SDS011;58587;53.034;18.576;2022-07-06T10:15:33;2.10;;;0.90;;
70927;SDS011;58587;53.034;18.576;2022-07-06T10:18:01;1.25;;;0.77;;
70927;SDS011;58587;53.034;18.576;2022-07-06T10:20:29;1.80;;;0.60;;
70927;SDS011;58587;53.034;18.576;2022-07-06T10:22:57;1.10;;;0.70;;
70927;SDS011;58587;53.034;18.576;2022-07-06T10:25:24;2.50;;;0.82;;
70927;SDS011;58587;53.034;18.576;2022-07-06T10:27:51;1.63;;;0.70;;
70927;SDS011;58587;53.034;18.576;2022-07-06T10:30:17;2.08;;;0.82;;
70927;SDS011;58587;53.034;18.576;2022-07-06T10:32:43;1.02;;;0.60;;
70927;SDS011;58587;53.034;18.576;2022-07-06T10:35:10;2.07;;;0.60;;
70927;SDS011;58587;53.034;18.576;2022-07-06T10:37:36;2.15;;;0.70;;
70927;SDS011;58587;53.034;18.576;2022-07-06T10:40:02;1.17;;;0.80;;
70927;SDS011;58587;53.034;18.576;2022-07-06T10:42:47;2.55;;;0.80;;
70927;SDS011;58587;53.034;18.576;2022-07-06T10:45:22;5.90;;;0.90;;
70927;SDS011;58587;53.034;18.576;2022-07-06T10:50:39;2.23;;;1.00;;
70927;SDS011;58587;53.034;18.576;2022-07-06T10:53:25;1.23;;;0.77;;
70927;SDS011;58587;53.034;18.576;2022-07-06T10:55:52;0.98;;;0.52;;
70927;SDS011;58587;53.034;18.576;2022-07-06T11:01:18;3.80;;;1.20;;
70927;SDS011;58587;53.034;18.576;2022-07-06T11:08:48;4.03;;;1.20;;
70927;SDS011;58587;53.034;18.576;2022-07-06T11:11:25;3.40;;;1.43;;
70927;SDS011;58587;53.034;18.576;2022-07-06T11:17:19;1.75;;;1.27;;
70927;SDS011;58587;53.034;18.576;2022-07-06T11:19:25;3.15;;;1.38;;
70927;SDS011;58587;53.034;18.576;2022-07-06T11:21:52;2.20;;;1.13;;
70927;SDS011;58587;53.034;18.576;2022-07-06T11:24:30;2.95;;;1.45;;
70927;SDS011;58587;53.034;18.576;2022-07-06T11:27:03;3.03;;;1.38;;
70927;SDS011;58587;53.034;18.576;2022-07-06T11:29:32;3.33;;;1.65;;
70927;SDS011;58587;53.034;18.576;2022-07-06T11:31:59;3.63;;;1.33;;
70927;SDS011;58587;53.034;18.576;2022-07-06T11:34:29;2.63;;;1.05;;
70927;SDS011;58587;53.034;18.576;2022-07-06T11:39:47;3.47;;;1.30;;
70927;SDS011;58587;53.034;18.576;2022-07-06T11:42:14;3.25;;;1.20;;
70927;SDS011;58587;53.034;18.576;2022-07-06T11:44:43;2.97;;;1.30;;
70927;SDS011;58587;53.034;18.576;2022-07-06T11:47:09;2.80;;;1.30;;
70927;SDS011;58587;53.034;18.576;2022-07-06T11:49:41;3.05;;;1.25;;
70927;SDS011;58587;53.034;18.576;2022-07-06T11:52:11;3.38;;;1.10;;
70927;SDS011;58587;53.034;18.576;2022-07-06T11:54:38;6.43;;;1.58;;
70927;SDS011;58587;53.034;18.576;2022-07-06T11:57:07;3.53;;;1.37;;
70927;SDS011;58587;53.034;18.576;2022-07-06T11:59:34;4.13;;;1.70;;
70927;SDS011;58587;53.034;18.576;2022-07-06T12:02:11;2.35;;;1.08;;
70927;SDS011;58587;53.034;18.576;2022-07-06T12:04:40;4.38;;;1.48;;
70927;SDS011;58587;53.034;18.576;2022-07-06T12:07:13;3.70;;;1.25;;
70927;SDS011;58587;53.034;18.576;2022-07-06T12:09:41;2.50;;;1.70;;
70927;SDS011;58587;53.034;18.576;2022-07-06T12:12:08;3.10;;;1.13;;
70927;SDS011;58587;53.034;18.576;2022-07-06T12:14:35;2.20;;;1.40;;
70927;SDS011;58587;53.034;18.576;2022-07-06T12:17:05;3.60;;;1.70;;
70927;SDS011;58587;53.034;18.576;2022-07-06T12:19:32;5.38;;;1.50;;
70927;SDS011;58587;53.034;18.576;2022-07-06T12:21:58;2.50;;;1.20;;
70927;SDS011;58587;53.034;18.576;2022-07-06T12:24:26;3.50;;;1.75;;
70927;SDS011;58587;53.034;18.576;2022-07-06T12:26:54;4.35;;;1.40;;
70927;SDS011;58587;53.034;18.576;2022-07-06T12:29:20;2.85;;;1.50;;
70927;SDS011;58587;53.034;18.576;2022-07-06T12:34:13;2.80;;;1.07;;
70927;SDS011;58587;53.034;18.576;2022-07-06T12:36:45;3.57;;;1.40;;
70927;SDS011;58587;53.034;18.576;2022-07-06T12:39:16;1.98;;;1.27;;
70927;SDS011;58587;53.034;18.576;2022-07-06T12:44:16;2.55;;;1.27;;
70927;SDS011;58587;53.034;18.576;2022-07-06T12:46:43;3.13;;;1.23;;
70927;SDS011;58587;53.034;18.576;2022-07-06T12:49:17;2.80;;;0.90;;
70927;SDS011;58587;53.034;18.576;2022-07-06T12:54:50;3.60;;;1.15;;
70927;SDS011;58587;53.034;18.576;2022-07-06T12:57:17;2.25;;;1.20;;
70927;SDS011;58587;53.034;18.576;2022-07-06T12:59:44;5.25;;;1.33;;
70927;SDS011;58587;53.034;18.576;2022-07-06T13:02:25;1.97;;;1.20;;
70927;SDS011;58587;53.034;18.576;2022-07-06T13:04:58;4.43;;;1.15;;
70927;SDS011;58587;53.034;18.576;2022-07-06T13:07:27;3.03;;;1.27;;
70927;SDS011;58587;53.034;18.576;2022-07-06T13:09:54;2.47;;;1.10;;
70927;SDS011;58587;53.034;18.576;2022-07-06T13:12:20;3.72;;;0.80;;
70927;SDS011;58587;53.034;18.576;2022-07-06T13:14:46;4.13;;;1.20;;
70927;SDS011;58587;53.034;18.576;2022-07-06T13:17:13;2.95;;;1.20;;
70927;SDS011;58587;53.034;18.576;2022-07-06T13:19:38;2.67;;;1.00;;
70927;SDS011;58587;53.034;18.576;2022-07-06T13:22:04;2.47;;;1.10;;
70927;SDS011;58587;53.034;18.576;2022-07-06T13:24:29;5.47;;;1.30;;
70927;SDS011;58587;53.034;18.576;2022-07-06T13:26:55;6.35;;;1.10;;
70927;SDS011;58587;53.034;18.576;2022-07-06T13:29:22;2.60;;;1.00;;
70927;SDS011;58587;53.034;18.576;2022-07-06T13:31:48;3.80;;;1.00;;
70927;SDS011;58587;53.034;18.576;2022-07-06T13:34:14;3.85;;;1.15;;
70927;SDS011;58587;53.034;18.576;2022-07-06T13:36:40;2.03;;;1.10;;
70927;SDS011;58587;53.034;18.576;2022-07-06T13:39:06;4.15;;;1.13;;
70927;SDS011;58587;53.034;18.576;2022-07-06T13:41:32;3.45;;;1.25;;
70927;SDS011;58587;53.034;18.576;2022-07-06T13:43:58;3.35;;;1.13;;
70927;SDS011;58587;53.034;18.576;2022-07-06T13:46:25;4.63;;;1.17;;
70927;SDS011;58587;53.034;18.576;2022-07-06T13:48:51;1.65;;;0.95;;
70927;SDS011;58587;53.034;18.576;2022-07-06T13:51:17;4.00;;;1.00;;
70927;SDS011;58587;53.034;18.576;2022-07-06T13:53:42;2.70;;;1.00;;
70927;SDS011;58587;53.034;18.576;2022-07-06T13:56:08;4.50;;;1.20;;
70927;SDS011;58587;53.034;18.576;2022-07-06T13:58:33;2.63;;;0.90;;
70927;SDS011;58587;53.034;18.576;2022-07-06T14:00:59;1.93;;;1.03;;
70927;SDS011;58587;53.034;18.576;2022-07-06T14:03:25;1.98;;;0.80;;
70927;SDS011;58587;53.034;18.576;2022-07-06T14:05:54;3.67;;;1.00;;
70927;SDS011;58587;53.034;18.576;2022-07-06T14:08:24;2.30;;;1.10;;
70927;SDS011;58587;53.034;18.576;2022-07-06T14:10:51;3.08;;;1.17;;
70927;SDS011;58587;53.034;18.576;2022-07-06T14:13:20;4.53;;;1.10;;
70927;SDS011;58587;53.034;18.576;2022-07-06T14:15:48;1.92;;;1.10;;
70927;SDS011;58587;53.034;18.576;2022-07-06T14:18:14;2.00;;;1.00;;
70927;SDS011;58587;53.034;18.576;2022-07-06T14:20:42;3.25;;;0.90;;
70927;SDS011;58587;53.034;18.576;2022-07-06T14:23:08;2.58;;;1.00;;
70927;SDS011;58587;53.034;18.576;2022-07-06T14:25:33;2.50;;;0.70;;
70927;SDS011;58587;53.034;18.576;2022-07-06T14:27:59;2.03;;;1.07;;
70927;SDS011;58587;53.034;18.576;2022-07-06T14:30:24;2.53;;;0.95;;
70927;SDS011;58587;53.034;18.576;2022-07-06T14:32:50;2.87;;;1.10;;
70927;SDS011;58587;53.034;18.576;2022-07-06T14:35:16;1.42;;;1.00;;
70927;SDS011;58587;53.034;18.576;2022-07-06T14:37:41;3.57;;;1.17;;
70927;SDS011;58587;53.034;18.576;2022-07-06T14:40:07;1.53;;;1.20;;
70927;SDS011;58587;53.034;18.576;2022-07-06T14:42:33;2.08;;;1.00;;
70927;SDS011;58587;53.034;18.576;2022-07-06T14:44:58;2.83;;;0.80;;
70927;SDS011;58587;53.034;18.576;2022-07-06T14:47:24;2.43;;;1.60;;
70927;SDS011;58587;53.034;18.576;2022-07-06T14:49:49;1.10;;;1.00;;
70927;SDS011;58587;53.034;18.576;2022-07-06T14:52:15;2.15;;;1.27;;
70927;SDS011;58587;53.034;18.576;2022-07-06T14:54:44;1.80;;;1.43;;
70927;SDS011;58587;53.034;18.576;2022-07-06T14:57:09;3.97;;;1.50;;
70927;SDS011;58587;53.034;18.576;2022-07-06T14:59:35;2.17;;;1.47;;
70927;SDS011;58587;53.034;18.576;2022-07-06T15:02:03;2.83;;;1.35;;
70927;SDS011;58587;53.034;18.576;2022-07-06T15:04:29;1.60;;;1.20;;
70927;SDS011;58587;53.034;18.576;2022-07-06T15:06:57;1.80;;;1.50;;
70927;SDS011;58587;53.034;18.576;2022-07-06T15:09:22;3.42;;;1.40;;
70927;SDS011;58587;53.034;18.576;2022-07-06T15:11:48;1.97;;;1.40;;
70927;SDS011;58587;53.034;18.576;2022-07-06T15:14:14;1.90;;;1.13;;
70927;SDS011;58587;53.034;18.576;2022-07-06T15:16:41;3.30;;;1.20;;
70927;SDS011;58587;53.034;18.576;2022-07-06T15:19:09;2.33;;;1.40;;
70927;SDS011;58587;53.034;18.576;2022-07-06T15:21:34;3.28;;;1.30;;
70927;SDS011;58587;53.034;18.576;2022-07-06T15:23:59;1.40;;;0.90;;
70927;SDS011;58587;53.034;18.576;2022-07-06T15:26:25;2.57;;;1.10;;
70927;SDS011;58587;53.034;18.576;2022-07-06T15:28:50;3.70;;;1.50;;
70927;SDS011;58587;53.034;18.576;2022-07-06T15:31:16;2.70;;;0.90;;
70927;SDS011;58587;53.034;18.576;2022-07-06T15:33:41;3.03;;;0.93;;
70927;SDS011;58587;53.034;18.576;2022-07-06T15:36:07;3.10;;;0.90;;
70927;SDS011;58587;53.034;18.576;2022-07-06T15:38:39;6.10;;;0.90;;
70927;SDS011;58587;53.034;18.576;2022-07-06T15:41:04;2.80;;;0.80;;
70927;SDS011;58587;53.034;18.576;2022-07-06T15:43:30;1.27;;;0.93;;
70927;SDS011;58587;53.034;18.576;2022-07-06T15:45:59;2.10;;;0.63;;
70927;SDS011;58587;53.034;18.576;2022-07-06T15:48:31;2.25;;;0.85;;
70927;SDS011;58587;53.034;18.576;2022-07-06T15:50:58;2.17;;;0.85;;
70927;SDS011;58587;53.034;18.576;2022-07-06T15:53:24;1.40;;;0.70;;
70927;SDS011;58587;53.034;18.576;2022-07-06T15:55:50;4.53;;;0.90;;
70927;SDS011;58587;53.034;18.576;2022-07-06T15:58:19;1.75;;;0.82;;
70927;SDS011;58587;53.034;18.576;2022-07-06T16:00:44;2.25;;;0.88;;
70927;SDS011;58587;53.034;18.576;2022-07-06T16:03:12;1.53;;;0.90;;
70927;SDS011;58587;53.034;18.576;2022-07-06T16:05:54;2.20;;;0.70;;
70927;SDS011;58587;53.034;18.576;2022-07-06T16:08:33;1.92;;;0.77;;
70927;SDS011;58587;53.034;18.576;2022-07-06T16:10:58;2.37;;;1.00;;
70927;SDS011;58587;53.034;18.576;2022-07-06T16:13:24;2.10;;;0.40;;
70927;SDS011;58587;53.034;18.576;2022-07-06T16:15:50;3.05;;;0.63;;
70927;SDS011;58587;53.034;18.576;2022-07-06T16:18:24;1.50;;;0.70;;
70927;SDS011;58587;53.034;18.576;2022-07-06T16:20:58;1.38;;;0.80;;
70927;SDS011;58587;53.034;18.576;2022-07-06T16:23:26;3.93;;;1.30;;
70927;SDS011;58587;53.034;18.576;2022-07-06T16:25:54;2.73;;;0.80;;
70927;SDS011;58587;53.034;18.576;2022-07-06T16:28:20;2.35;;;0.70;;
70927;SDS011;58587;53.034;18.576;2022-07-06T16:30:49;3.15;;;0.70;;
70927;SDS011;58587;53.034;18.576;2022-07-06T16:33:15;1.90;;;0.40;;
70927;SDS011;58587;53.034;18.576;2022-07-06T16:35:41;1.40;;;0.40;;
70927;SDS011;58587;53.034;18.576;2022-07-06T16:38:07;1.42;;;0.30;;
70927;SDS011;58587;53.034;18.576;2022-07-06T16:40:33;2.20;;;0.30;;
70927;SDS011;58587;53.034;18.576;2022-07-06T16:42:58;1.48;;;0.30;;
70927;SDS011;58587;53.034;18.576;2022-07-06T16:45:24;1.03;;;0.30;;
70927;SDS011;58587;53.034;18.576;2022-07-06T16:47:50;1.03;;;0.47;;
70927;SDS011;58587;53.034;18.576;2022-07-06T16:50:15;0.80;;;0.30;;
70927;SDS011;58587;53.034;18.576;2022-07-06T16:52:44;0.77;;;0.30;;
70927;SDS011;58587;53.034;18.576;2022-07-06T16:55:09;0.50;;;0.38;;
70927;SDS011;58587;53.034;18.576;2022-07-06T16:57:35;2.35;;;0.30;;
70927;SDS011;58587;53.034;18.576;2022-07-06T17:00:01;1.27;;;0.30;;
70927;SDS011;58587;53.034;18.576;2022-07-06T17:02:37;1.20;;;0.40;;
70927;SDS011;58587;53.034;18.576;2022-07-06T17:05:02;1.52;;;0.40;;
70927;SDS011;58587;53.034;18.576;2022-07-06T17:07:28;2.33;;;0.77;;
70927;SDS011;58587;53.034;18.576;2022-07-06T17:09:54;2.43;;;0.30;;
70927;SDS011;58587;53.034;18.576;2022-07-06T17:12:28;1.92;;;0.30;;
70927;SDS011;58587;53.034;18.576;2022-07-06T17:15:00;0.70;;;0.27;;
70927;SDS011;58587;53.034;18.576;2022-07-06T17:17:29;1.65;;;0.20;;
70927;SDS011;58587;53.034;18.576;2022-07-06T17:19:55;1.13;;;0.30;;
70927;SDS011;58587;53.034;18.576;2022-07-06T17:22:20;1.40;;;0.22;;
70927;SDS011;58587;53.034;18.576;2022-07-06T17:24:46;2.63;;;0.30;;
70927;SDS011;58587;53.034;18.576;2022-07-06T17:27:12;2.03;;;0.63;;
70927;SDS011;58587;53.034;18.576;2022-07-06T17:29:39;0.82;;;0.10;;
70927;SDS011;58587;53.034;18.576;2022-07-06T17:32:05;1.83;;;0.50;;
70927;SDS011;58587;53.034;18.576;2022-07-06T17:34:31;1.00;;;0.10;;
70927;SDS011;58587;53.034;18.576;2022-07-06T17:36:57;0.50;;;0.20;;
70927;SDS011;58587;53.034;18.576;2022-07-06T17:39:25;1.45;;;0.40;;
70927;SDS011;58587;53.034;18.576;2022-07-06T17:41:51;0.95;;;0.30;;
70927;SDS011;58587;53.034;18.576;2022-07-06T17:44:17;1.50;;;0.30;;
70927;SDS011;58587;53.034;18.576;2022-07-06T17:46:42;0.53;;;0.20;;
70927;SDS011;58587;53.034;18.576;2022-07-06T17:49:08;1.40;;;0.43;;
70927;SDS011;58587;53.034;18.576;2022-07-06T17:51:37;0.88;;;0.32;;
70927;SDS011;58587;53.034;18.576;2022-07-06T17:54:02;1.03;;;0.20;;
70927;SDS011;58587;53.034;18.576;2022-07-06T17:56:28;0.85;;;0.28;;
70927;SDS011;58587;53.034;18.576;2022-07-06T17:58:56;0.40;;;0.00;;
70927;SDS011;58587;53.034;18.576;2022-07-06T18:01:23;0.80;;;0.20;;
70927;SDS011;58587;53.034;18.576;2022-07-06T18:03:49;1.10;;;0.37;;
70927;SDS011;58587;53.034;18.576;2022-07-06T18:06:14;1.23;;;0.40;;
70927;SDS011;58587;53.034;18.576;2022-07-06T18:08:47;1.43;;;0.20;;
70927;SDS011;58587;53.034;18.576;2022-07-06T18:11:13;1.33;;;0.73;;
70927;SDS011;58587;53.034;18.576;2022-07-06T18:13:39;1.70;;;0.30;;
70927;SDS011;58587;53.034;18.576;2022-07-06T18:16:04;1.63;;;0.50;;
70927;SDS011;58587;53.034;18.576;2022-07-06T18:18:32;1.73;;;0.40;;
70927;SDS011;58587;53.034;18.576;2022-07-06T18:20:57;4.73;;;0.30;;
70927;SDS011;58587;53.034;18.576;2022-07-06T18:23:24;1.37;;;0.60;;
70927;SDS011;58587;53.034;18.576;2022-07-06T18:25:50;0.80;;;0.40;;
70927;SDS011;58587;53.034;18.576;2022-07-06T18:28:17;1.00;;;0.50;;
70927;SDS011;58587;53.034;18.576;2022-07-06T18:30:51;2.00;;;0.30;;
70927;SDS011;58587;53.034;18.576;2022-07-06T18:33:17;1.13;;;0.30;;
70927;SDS011;58587;53.034;18.576;2022-07-06T18:35:43;0.68;;;0.28;;
70927;SDS011;58587;53.034;18.576;2022-07-06T18:38:09;2.03;;;0.38;;
70927;SDS011;58587;53.034;18.576;2022-07-06T18:40:36;0.70;;;0.20;;
70927;SDS011;58587;53.034;18.576;2022-07-06T18:43:02;5.65;;;0.50;;
70927;SDS011;58587;53.034;18.576;2022-07-06T18:45:28;1.92;;;0.28;;
70927;SDS011;58587;53.034;18.576;2022-07-06T18:47:54;1.60;;;0.60;;
70927;SDS011;58587;53.034;18.576;2022-07-06T18:50:19;1.20;;;0.47;;
70927;SDS011;58587;53.034;18.576;2022-07-06T18:52:45;0.40;;;0.30;;
70927;SDS011;58587;53.034;18.576;2022-07-06T18:55:11;0.77;;;0.30;;
70927;SDS011;58587;53.034;18.576;2022-07-06T18:57:36;1.63;;;0.60;;
70927;SDS011;58587;53.034;18.576;2022-07-06T19:00:02;0.80;;;0.23;;
70927;SDS011;58587;53.034;18.576;2022-07-06T19:02:29;0.90;;;0.30;;
70927;SDS011;58587;53.034;18.576;2022-07-06T19:04:54;1.57;;;0.50;;
70927;SDS011;58587;53.034;18.576;2022-07-06T19:07:20;3.20;;;1.00;;
70927;SDS011;58587;53.034;18.576;2022-07-06T19:09:47;2.03;;;0.30;;
70927;SDS011;58587;53.034;18.576;2022-07-06T19:12:12;2.93;;;0.40;;
70927;SDS011;58587;53.034;18.576;2022-07-06T19:14:38;1.50;;;0.27;;
70927;SDS011;58587;53.034;18.576;2022-07-06T19:17:03;3.07;;;0.40;;
70927;SDS011;58587;53.034;18.576;2022-07-06T19:19:29;2.70;;;0.50;;
70927;SDS011;58587;53.034;18.576;2022-07-06T19:21:54;0.60;;;0.40;;
70927;SDS011;58587;53.034;18.576;2022-07-06T19:24:20;2.05;;;0.32;;
70927;SDS011;58587;53.034;18.576;2022-07-06T19:26:45;2.70;;;0.50;;
70927;SDS011;58587;53.034;18.576;2022-07-06T19:29:11;0.65;;;0.40;;
70927;SDS011;58587;53.034;18.576;2022-07-06T19:31:37;1.43;;;0.43;;
70927;SDS011;58587;53.034;18.576;2022-07-06T19:34:02;0.60;;;0.30;;
70927;SDS011;58587;53.034;18.576;2022-07-06T19:36:29;1.45;;;0.30;;
70927;SDS011;58587;53.034;18.576;2022-07-06T19:38:54;0.70;;;0.30;;
70927;SDS011;58587;53.034;18.576;2022-07-06T19:41:20;3.60;;;0.30;;
70927;SDS011;58587;53.034;18.576;2022-07-06T19:43:47;3.90;;;0.30;;
70927;SDS011;58587;53.034;18.576;2022-07-06T19:46:14;0.82;;;0.30;;
70927;SDS011;58587;53.034;18.576;2022-07-06T19:48:39;1.90;;;0.40;;
70927;SDS011;58587;53.034;18.576;2022-07-06T19:51:05;1.53;;;0.30;;
70927;SDS011;58587;53.034;18.576;2022-07-06T19:53:33;0.40;;;0.20;;
70927;SDS011;58587;53.034;18.576;2022-07-06T19:56:01;1.75;;;0.20;;
70927;SDS011;58587;53.034;18.576;2022-07-06T19:58:27;1.25;;;0.25;;
70927;SDS011;58587;53.034;18.576;2022-07-06T20:00:53;0.57;;;0.27;;
70927;SDS011;58587;53.034;18.576;2022-07-06T20:03:22;1.90;;;0.30;;
70927;SDS011;58587;53.034;18.576;2022-07-06T20:05:50;1.03;;;0.20;;
70927;SDS011;58587;53.034;18.576;2022-07-06T20:08:16;5.50;;;0.38;;
70927;SDS011;58587;53.034;18.576;2022-07-06T20:10:42;1.10;;;0.30;;
70927;SDS011;58587;53.034;18.576;2022-07-06T20:13:07;1.00;;;0.40;;
70927;SDS011;58587;53.034;18.576;2022-07-06T20:15:33;1.73;;;0.47;;
70927;SDS011;58587;53.034;18.576;2022-07-06T20:18:02;0.57;;;0.33;;
70927;SDS011;58587;53.034;18.576;2022-07-06T20:20:28;1.70;;;0.33;;
70927;SDS011;58587;53.034;18.576;2022-07-06T20:22:53;1.40;;;0.40;;
70927;SDS011;58587;53.034;18.576;2022-07-06T20:25:19;2.53;;;0.73;;
70927;SDS011;58587;53.034;18.576;2022-07-06T20:27:44;3.90;;;0.70;;
70927;SDS011;58587;53.034;18.576;2022-07-06T20:30:10;2.17;;;0.67;;
70927;SDS011;58587;53.034;18.576;2022-07-06T20:32:37;1.65;;;0.47;;
70927;SDS011;58587;53.034;18.576;2022-07-06T20:35:03;1.20;;;0.40;;
70927;SDS011;58587;53.034;18.576;2022-07-06T20:37:30;2.53;;;0.40;;
70927;SDS011;58587;53.034;18.576;2022-07-06T20:39:56;1.95;;;0.50;;
70927;SDS011;58587;53.034;18.576;2022-07-06T20:42:21;0.87;;;0.37;;
70927;SDS011;58587;53.034;18.576;2022-07-06T20:44:47;1.03;;;0.30;;
70927;SDS011;58587;53.034;18.576;2022-07-06T20:47:13;1.52;;;0.50;;
70927;SDS011;58587;53.034;18.576;2022-07-06T20:49:39;1.17;;;0.35;;
70927;SDS011;58587;53.034;18.576;2022-07-06T20:52:05;0.93;;;0.40;;
70927;SDS011;58587;53.034;18.576;2022-07-06T20:54:30;0.82;;;0.30;;
70927;SDS011;58587;53.034;18.576;2022-07-06T20:56:55;1.63;;;0.50;;
70927;SDS011;58587;53.034;18.576;2022-07-06T20:59:21;2.13;;;0.50;;
70927;SDS011;58587;53.034;18.576;2022-07-06T21:01:46;1.87;;;0.90;;
70927;SDS011;58587;53.034;18.576;2022-07-06T21:04:12;2.23;;;0.90;;
70927;SDS011;58587;53.034;18.576;2022-07-06T21:06:37;2.73;;;0.70;;
70927;SDS011;58587;53.034;18.576;2022-07-06T21:09:03;2.53;;;0.70;;
70927;SDS011;58587;53.034;18.576;2022-07-06T21:11:29;1.92;;;0.73;;
70927;SDS011;58587;53.034;18.576;2022-07-06T21:13:54;1.70;;;0.80;;
70927;SDS011;58587;53.034;18.576;2022-07-06T21:16:20;2.17;;;0.98;;
70927;SDS011;58587;53.034;18.576;2022-07-06T21:18:45;2.90;;;0.90;;
70927;SDS011;58587;53.034;18.576;2022-07-06T21:21:11;2.63;;;0.80;;
70927;SDS011;58587;53.034;18.576;2022-07-06T21:23:36;2.20;;;0.80;;
70927;SDS011;58587;53.034;18.576;2022-07-06T21:26:03;1.03;;;0.30;;
70927;SDS011;58587;53.034;18.576;2022-07-06T21:28:29;2.25;;;0.80;;
70927;SDS011;58587;53.034;18.576;2022-07-06T21:30:55;4.23;;;0.50;;
70927;SDS011;58587;53.034;18.576;2022-07-06T21:33:20;1.67;;;0.50;;
70927;SDS011;58587;53.034;18.576;2022-07-06T21:35:47;1.50;;;0.60;;
70927;SDS011;58587;53.034;18.576;2022-07-06T21:38:13;1.25;;;0.60;;
70927;SDS011;58587;53.034;18.576;2022-07-06T21:40:38;2.13;;;0.50;;
70927;SDS011;58587;53.034;18.576;2022-07-06T21:43:03;2.40;;;0.60;;
70927;SDS011;58587;53.034;18.576;2022-07-06T21:45:29;2.33;;;0.70;;
70927;SDS011;58587;53.034;18.576;2022-07-06T21:47:54;1.25;;;0.40;;
70927;SDS011;58587;53.034;18.576;2022-07-06T21:50:20;3.63;;;0.50;;
70927;SDS011;58587;53.034;18.576;2022-07-06T21:52:45;1.60;;;0.83;;
70927;SDS011;58587;53.034;18.576;2022-07-06T21:55:11;3.77;;;0.60;;
70927;SDS011;58587;53.034;18.576;2022-07-06T21:57:36;1.80;;;0.60;;
70927;SDS011;58587;53.034;18.576;2022-07-06T22:00:02;2.93;;;0.50;;
70927;SDS011;58587;53.034;18.576;2022-07-06T22:02:30;1.45;;;0.60;;
70927;SDS011;58587;53.034;18.576;2022-07-06T22:04:55;0.90;;;0.50;;
70927;SDS011;58587;53.034;18.576;2022-07-06T22:07:21;1.37;;;0.40;;
70927;SDS011;58587;53.034;18.576;2022-07-06T22:09:46;1.60;;;0.55;;
70927;SDS011;58587;53.034;18.576;2022-07-06T22:12:11;1.50;;;0.40;;
70927;SDS011;58587;53.034;18.576;2022-07-06T22:14:37;1.70;;;0.60;;
70927;SDS011;58587;53.034;18.576;2022-07-06T22:17:02;1.53;;;0.50;;
70927;SDS011;58587;53.034;18.576;2022-07-06T22:19:28;1.30;;;0.60;;
70927;SDS011;58587;53.034;18.576;2022-07-06T22:21:54;0.50;;;0.30;;
70927;SDS011;58587;53.034;18.576;2022-07-06T22:24:19;2.13;;;0.40;;
70927;SDS011;58587;53.034;18.576;2022-07-06T22:26:44;0.80;;;0.50;;
70927;SDS011;58587;53.034;18.576;2022-07-06T22:29:10;2.90;;;0.63;;
70927;SDS011;58587;53.034;18.576;2022-07-06T22:31:36;0.83;;;0.37;;
70927;SDS011;58587;53.034;18.576;2022-07-06T22:34:01;1.90;;;0.30;;
70927;SDS011;58587;53.034;18.576;2022-07-06T22:36:27;0.60;;;0.40;;
70927;SDS011;58587;53.034;18.576;2022-07-06T22:38:56;1.35;;;0.90;;
70927;SDS011;58587;53.034;18.576;2022-07-06T22:41:22;1.53;;;0.67;;
70927;SDS011;58587;53.034;18.576;2022-07-06T22:43:48;2.35;;;0.70;;
70927;SDS011;58587;53.034;18.576;2022-07-06T22:46:14;0.52;;;0.40;;
70927;SDS011;58587;53.034;18.576;2022-07-06T22:48:43;1.23;;;0.40;;
70927;SDS011;58587;53.034;18.576;2022-07-06T22:51:09;0.98;;;0.50;;
70927;SDS011;58587;53.034;18.576;2022-07-06T22:53:35;1.80;;;0.47;;
70927;SDS011;58587;53.034;18.576;2022-07-06T22:56:01;0.90;;;0.50;;
70927;SDS011;58587;53.034;18.576;2022-07-06T22:58:27;1.75;;;0.40;;
70927;SDS011;58587;53.034;18.576;2022-07-06T23:00:53;1.87;;;0.53;;
70927;SDS011;58587;53.034;18.576;2022-07-06T23:03:18;1.88;;;0.50;;